Aérodrome :
LOGIN :

S'inscrire | Disclaimer

   EN    FR    IT 

 










Légende :    VFR   VFR Marginal   IFR   IFR Intensif   IFR Très Intensif
Visi : 
Plafond : 
>= 8 km
>= 3000ft
5 à 8 km
1000 à 3000 ft
1500m à 5 km
500 à 1000 ft
800 à 1500m
200 à 500 ft
< 800m
< 200 ft
Symboles :   Orages  Brouillard  Fortes neiges  Fortes précipitations  Vent > 20 kt
SIGMETs :   Divers  Orages  Givrage  Turbulence  Onde Orograph.  Cendres Volcan.







- Altitude de l'aérodrome : 1989 ft
- Code IATA : KLV


LKKV - Karlovy Vary

DERNIER METAR :
  • 181100Z 27013KT 9999 BKN019 M03/M06 Q1016 R29/790293

METARs EXPIRÉS :
  • 181030Z 27011KT 9999 BKN019 M03/M06 Q1016 R29/790293
  • 181000Z 28010KT 9999 BKN019 M02/M05 Q1015 R29/790591
  • 180930Z 27009KT 9999 BKN015 M02/M04 Q1015 R29/593091
  • 180900Z 25005KT 9999 -SHSN FEW009 BKN014 M02/M04 Q1014 R29/593091
  • 180830Z 26007KT 230V290 9999 -SHSN FEW009 BKN017 M03/M04 Q1014 R29/593091
  • 180820Z 27009KT 9999 -SHSN FEW009 BKN017 M03/M04 Q1014 R29/593091 RMK REG QNH 1007

TAF TAF LKKV
Valide du 18 à 06h jusqu'au 19 à 12h UTC


180500Z 1806/1912 24006KT 9999 BKN020
TEMPO 1806/1810 1200 SHSN BKN005
BECMG 1806/1808 29005KT
BECMG 1810/1812 BKN030
BECMG 1815/1817 VRB02KT CAVOK
Pas de NOTAMs connus pour ce terrain.



MET'MAP, la Météo Aéronautique d'un coup d'oeil ! - Copyright ORBIFLY Décembre 2007 - Disclaimer

ORBIFLY MET'MAP TEAM :

Programmation & Développement : Alexandra Zaïnal
Conception & Développement : Baudouin d'Aumeries
Co-Programmation & Développement : Marc-Olivier Méhu
Soutien technique & logistique : Manuel Goepfert

Contact : metmap@orbifly.com




SOURCES & CREDITS :

   NOAA